createdAt,value
2023-04-15T00:02:02.871Z,66.12
2023-04-15T00:04:34.147Z,65.83
2023-04-15T00:07:05.085Z,65.69
2023-04-15T00:09:35.765Z,65.00
2023-04-15T00:12:09.390Z,65.04
2023-04-15T00:14:40.102Z,64.55
2023-04-15T00:17:11.032Z,64.62
2023-04-15T00:19:42.154Z,64.70
2023-04-15T00:22:13.077Z,64.50
2023-04-15T00:24:44.236Z,64.41
2023-04-15T00:27:17.680Z,64.35
2023-04-15T00:29:48.605Z,64.12
2023-04-15T00:32:19.390Z,63.92
2023-04-15T00:34:50.187Z,63.43
2023-04-15T00:37:21.072Z,63.37
2023-04-15T00:39:52.435Z,63.39
2023-04-15T00:42:26.067Z,63.38
2023-04-15T00:44:57.611Z,63.50
2023-04-15T00:47:29.683Z,63.46
2023-04-15T00:50:00.492Z,63.19
2023-04-15T00:52:31.469Z,63.08
2023-04-15T00:55:02.705Z,62.85
2023-04-15T00:57:37.068Z,62.59
2023-04-15T01:00:09.960Z,62.65
2023-04-15T01:02:41.393Z,62.88
2023-04-15T01:05:12.674Z,62.79
2023-04-15T01:07:43.912Z,62.56
2023-04-15T01:10:15.101Z,62.54
2023-04-15T01:12:49.492Z,62.71
2023-04-15T01:15:20.760Z,62.59
2023-04-15T01:17:52.110Z,62.13
2023-04-15T01:20:23.761Z,61.56
2023-04-15T01:22:54.722Z,61.74
2023-04-15T01:25:35.059Z,61.61
2023-04-15T01:28:06.369Z,61.85
2023-04-15T01:30:38.420Z,61.88
2023-04-15T01:33:09.217Z,61.88
2023-04-15T01:35:58.063Z,61.89
2023-04-15T01:38:31.018Z,61.87
2023-04-15T01:41:04.643Z,61.77
2023-04-15T01:43:35.522Z,61.63
2023-04-15T01:46:06.531Z,61.98
2023-04-15T01:48:37.683Z,61.96
2023-04-15T01:51:08.547Z,62.29
2023-04-15T01:53:39.538Z,62.31
2023-04-15T01:56:14.707Z,62.39
2023-04-15T01:58:47.898Z,62.41
2023-04-15T02:01:20.116Z,62.52
2023-04-15T02:03:51.176Z,62.61
2023-04-15T02:06:21.863Z,62.79
2023-04-15T02:08:52.625Z,63.17
2023-04-15T02:11:26.241Z,62.95
2023-04-15T02:13:57.415Z,62.55
2023-04-15T02:16:29.605Z,62.68
2023-04-15T02:19:00.589Z,62.90
2023-04-15T02:21:31.366Z,62.86
2023-04-15T02:24:02.691Z,62.99
2023-04-15T02:26:35.983Z,63.87
2023-04-15T02:29:07.153Z,63.71
2023-04-15T02:31:40.801Z,64.01
2023-04-15T02:34:11.544Z,64.16
2023-04-15T02:36:42.272Z,64.53
2023-04-15T02:39:15.154Z,64.37
2023-04-15T02:41:52.265Z,64.51
2023-04-15T02:44:25.278Z,64.54
2023-04-15T02:47:00.926Z,64.65
2023-04-15T02:49:32.007Z,64.77
2023-04-15T02:52:02.601Z,65.50
2023-04-15T02:54:34.702Z,65.38
2023-04-15T02:57:08.551Z,65.72
2023-04-15T02:59:39.782Z,65.71
2023-04-15T03:02:10.915Z,66.00
2023-04-15T03:04:41.763Z,66.14
2023-04-15T03:07:12.366Z,66.66
2023-04-15T03:09:43.554Z,66.69
2023-04-15T03:12:19.750Z,67.14
2023-04-15T03:14:50.849Z,67.12
2023-04-15T03:17:21.588Z,66.96
2023-04-15T03:19:53.355Z,67.23
2023-04-15T03:22:23.856Z,67.21
2023-04-15T03:24:56.481Z,67.28
2023-04-15T03:27:29.765Z,67.52
2023-04-15T03:30:04.274Z,67.85
2023-04-15T03:32:37.086Z,68.16
2023-04-15T03:35:10.585Z,68.19
2023-04-15T03:37:41.370Z,68.61
2023-04-15T03:40:13.090Z,68.81
2023-04-15T03:42:46.382Z,68.33
2023-04-15T03:45:17.101Z,68.74
2023-04-15T03:47:47.878Z,72.28
2023-04-15T03:50:18.770Z,71.46
2023-04-15T03:52:50.739Z,75.88
2023-04-15T03:55:22.075Z,74.18
2023-04-15T03:57:55.332Z,76.96
2023-04-15T04:00:26.161Z,76.31
2023-04-15T04:02:57.402Z,76.58
2023-04-15T04:05:28.149Z,77.96
2023-04-15T04:07:58.769Z,77.11
2023-04-15T04:10:30.518Z,77.42
2023-04-15T04:13:03.817Z,76.50
2023-04-15T04:15:34.464Z,77.04
2023-04-15T04:18:05.150Z,76.95
2023-04-15T04:20:35.994Z,76.64
2023-04-15T04:23:06.865Z,77.26
2023-04-15T04:25:38.002Z,77.32
2023-04-15T04:28:12.019Z,78.25
2023-04-15T04:30:42.906Z,77.57
2023-04-15T04:33:13.647Z,77.15
2023-04-15T04:35:44.331Z,77.03
2023-04-15T04:38:14.984Z,77.34
2023-04-15T04:40:45.766Z,77.60
2023-04-15T04:43:19.092Z,77.54
2023-04-15T04:45:49.810Z,77.46
2023-04-15T04:48:20.371Z,77.19
2023-04-15T04:50:51.390Z,76.90
2023-04-15T04:53:22.140Z,76.99
2023-04-15T04:55:53.092Z,76.80
2023-04-15T04:58:26.746Z,77.43
2023-04-15T05:00:57.633Z,77.80
2023-04-15T05:03:28.356Z,76.96
2023-04-15T05:05:59.602Z,77.01
2023-04-15T05:08:30.167Z,76.27
2023-04-15T05:11:00.903Z,76.43
2023-04-15T05:13:34.036Z,75.80
2023-04-15T05:16:04.649Z,75.92
2023-04-15T05:18:35.381Z,74.64
2023-04-15T05:21:06.342Z,74.96
2023-04-15T05:23:37.952Z,73.83
2023-04-15T05:26:08.809Z,74.57
2023-04-15T05:28:42.031Z,73.31
2023-04-15T05:31:12.662Z,74.30
2023-04-15T05:33:43.661Z,72.33
2023-04-15T05:36:14.433Z,73.11
2023-04-15T05:38:45.009Z,73.67
2023-04-15T05:41:18.390Z,73.18
2023-04-15T05:43:53.017Z,72.88
2023-04-15T05:46:23.794Z,71.56
2023-04-15T05:48:56.378Z,69.08
2023-04-15T05:51:27.597Z,67.74
2023-04-15T05:53:58.213Z,65.84
2023-04-15T05:56:29.625Z,64.06
2023-04-15T05:59:02.950Z,62.02
2023-04-15T06:01:33.806Z,61.15
2023-04-15T06:04:04.647Z,58.11
2023-04-15T06:06:35.660Z,56.94
2023-04-15T06:09:06.588Z,55.06
2023-04-15T06:11:37.322Z,52.08
2023-04-15T06:14:10.510Z,49.83
2023-04-15T06:16:41.370Z,47.75
2023-04-15T06:19:12.696Z,46.01
2023-04-15T06:21:43.665Z,44.86
2023-04-15T06:24:14.961Z,41.47
2023-04-15T06:26:45.594Z,40.36
2023-04-15T06:29:18.840Z,38.82
2023-04-15T06:31:50.973Z,38.01
2023-04-15T06:34:21.967Z,37.61
2023-04-15T06:36:52.678Z,35.74
2023-04-15T06:39:23.330Z,35.51
2023-04-15T06:41:54.170Z,32.64
2023-04-15T06:44:28.303Z,32.72
2023-04-15T06:46:58.905Z,32.15
2023-04-15T06:49:29.573Z,31.37
2023-04-15T06:52:00.959Z,30.79
2023-04-15T06:54:31.624Z,31.12
2023-04-15T06:57:02.605Z,30.89
2023-04-15T06:59:35.842Z,28.66
2023-04-15T07:02:06.610Z,30.09
2023-04-15T07:04:37.372Z,29.13
2023-04-15T07:07:08.462Z,28.74
2023-04-15T07:09:39.143Z,29.10
2023-04-15T07:12:09.893Z,28.77
2023-04-15T07:14:43.114Z,27.71
2023-04-15T07:17:13.926Z,28.26
2023-04-15T07:19:44.616Z,28.29
2023-04-15T07:22:15.286Z,27.52
2023-04-15T07:24:45.884Z,27.75
2023-04-15T07:27:16.766Z,26.82
2023-04-15T07:29:51.811Z,25.95
2023-04-15T07:32:22.885Z,24.67
2023-04-15T07:34:53.885Z,25.01
2023-04-15T07:37:24.587Z,24.32
2023-04-15T07:39:55.707Z,24.08
2023-04-15T07:42:26.471Z,24.31
2023-04-15T07:45:00.377Z,24.46
2023-04-15T07:47:31.231Z,25.25
2023-04-15T07:50:02.559Z,25.31
2023-04-15T07:52:39.363Z,25.41
2023-04-15T07:55:11.779Z,25.65
2023-04-15T07:57:42.490Z,25.42
2023-04-15T08:00:17.700Z,25.53
2023-04-15T08:02:48.708Z,25.99
2023-04-15T08:05:20.039Z,25.94
2023-04-15T08:07:50.972Z,26.42
2023-04-15T08:10:24.612Z,26.50
2023-04-15T08:12:55.371Z,26.66
2023-04-15T08:15:29.766Z,27.12
2023-04-15T08:18:01.049Z,27.34
2023-04-15T08:20:31.823Z,27.93
2023-04-15T08:23:02.580Z,27.90
2023-04-15T08:25:33.730Z,28.19
2023-04-15T08:28:07.796Z,28.82
2023-04-15T08:30:41.070Z,29.51
2023-04-15T08:33:11.831Z,28.28
2023-04-15T08:35:42.443Z,28.20
2023-04-15T08:38:13.277Z,28.83
2023-04-15T08:40:45.872Z,28.28
2023-04-15T08:43:22.251Z,26.56
2023-04-15T08:46:00.569Z,25.95
2023-04-15T08:48:32.954Z,26.19
2023-04-15T08:51:04.622Z,26.02
2023-04-15T08:53:35.867Z,25.23
2023-04-15T08:56:10.853Z,25.77
2023-04-15T08:58:41.978Z,25.57
2023-04-15T09:01:16.273Z,26.24
2023-04-15T09:03:47.699Z,26.52
2023-04-15T09:06:20.235Z,26.85
2023-04-15T09:08:51.190Z,28.02
2023-04-15T09:11:22.277Z,28.16
2023-04-15T09:13:53.122Z,28.49
2023-04-15T09:16:26.427Z,28.26
2023-04-15T09:18:57.190Z,28.61
2023-04-15T09:21:29.883Z,28.64
2023-04-15T09:24:02.895Z,28.96
2023-04-15T09:26:35.742Z,28.69
2023-04-15T09:29:09.822Z,28.62
2023-04-15T09:31:43.868Z,28.75
2023-04-15T09:34:14.787Z,28.90
2023-04-15T09:37:00.183Z,28.68
2023-04-15T09:39:30.764Z,29.67
2023-04-15T09:42:10.161Z,29.16
2023-04-15T09:44:41.160Z,30.10
2023-04-15T09:47:31.830Z,29.99
2023-04-15T09:50:03.907Z,30.48
2023-04-15T09:52:34.665Z,30.41
2023-04-15T09:55:05.380Z,29.98
2023-04-15T09:57:41.486Z,29.86
2023-04-15T10:00:13.398Z,30.39
2023-04-15T10:02:47.473Z,29.40
2023-04-15T10:05:19.640Z,30.10
2023-04-15T10:07:50.863Z,29.85
2023-04-15T10:10:21.886Z,29.40
2023-04-15T10:12:54.560Z,29.53
2023-04-15T10:15:26.761Z,29.36
2023-04-15T10:18:00.913Z,29.18
2023-04-15T10:20:35.552Z,27.72
2023-04-15T10:23:08.134Z,27.95
2023-04-15T10:25:40.681Z,27.72
2023-04-15T10:28:11.743Z,27.89
2023-04-15T10:30:42.615Z,27.85
2023-04-15T10:33:17.465Z,28.00
2023-04-15T10:35:49.317Z,27.21
2023-04-15T10:38:44.826Z,26.55
2023-04-15T10:41:21.263Z,27.76
2023-04-15T10:43:54.459Z,27.87
2023-04-15T10:46:26.940Z,28.05
2023-04-15T10:49:01.349Z,27.99
2023-04-15T10:51:33.885Z,28.21
2023-04-15T10:54:04.635Z,28.58
2023-04-15T10:56:35.871Z,27.80
2023-04-15T10:59:08.849Z,26.88
2023-04-15T11:02:04.857Z,25.90
2023-04-15T11:05:01.182Z,26.09
2023-04-15T11:07:42.640Z,27.25
2023-04-15T11:11:00.499Z,26.66
2023-04-15T11:13:33.466Z,27.23
2023-04-15T11:16:05.573Z,28.15
2023-04-15T11:18:38.325Z,27.11
2023-04-15T11:21:12.535Z,27.03
2023-04-15T11:23:47.133Z,26.96
2023-04-15T11:26:18.000Z,27.31
2023-04-15T11:28:49.731Z,28.07
2023-04-15T11:31:23.596Z,27.35
2023-04-15T11:33:59.589Z,27.58
2023-04-15T11:36:34.351Z,27.34
2023-04-15T11:39:05.252Z,27.74
2023-04-15T11:41:36.029Z,26.81
2023-04-15T11:44:06.942Z,26.59
2023-04-15T11:46:37.604Z,26.34
2023-04-15T11:49:08.274Z,26.37
2023-04-15T11:51:41.759Z,27.07
2023-04-15T11:54:12.563Z,27.70
2023-04-15T11:56:43.512Z,26.82
2023-04-15T11:59:14.220Z,26.76
2023-04-15T12:01:47.090Z,27.58
2023-04-15T12:04:25.220Z,27.11
2023-04-15T12:07:08.146Z,27.24
2023-04-15T12:09:41.620Z,27.55
2023-04-15T12:12:12.888Z,26.56
2023-04-15T12:14:43.686Z,27.08
2023-04-15T12:17:14.686Z,26.88
2023-04-15T12:19:46.085Z,27.10
2023-04-15T12:22:20.975Z,26.15
2023-04-15T12:24:58.676Z,26.56
2023-04-15T12:27:30.045Z,26.72
2023-04-15T12:30:09.274Z,26.69
2023-04-15T12:32:42.184Z,26.76
2023-04-15T12:35:14.684Z,26.75
2023-04-15T12:37:48.116Z,26.98
2023-04-15T12:40:18.907Z,26.70
2023-04-15T12:42:50.664Z,27.26
2023-04-15T12:45:21.797Z,24.72
2023-04-15T12:47:52.736Z,25.09
2023-04-15T12:50:23.546Z,25.72
2023-04-15T12:52:57.026Z,25.29
2023-04-15T12:55:28.075Z,24.84
2023-04-15T12:57:58.842Z,25.38
2023-04-15T13:00:29.572Z,26.09
2023-04-15T13:03:00.427Z,26.39
2023-04-15T13:05:31.393Z,26.49
2023-04-15T13:08:04.829Z,26.78
2023-04-15T13:10:36.849Z,27.05
2023-04-15T13:13:08.286Z,26.66
2023-04-15T13:15:39.031Z,26.56
2023-04-15T13:18:10.790Z,26.85
2023-04-15T13:20:41.783Z,26.85
2023-04-15T13:23:15.340Z,26.83
2023-04-15T13:25:46.481Z,26.49
2023-04-15T13:28:17.235Z,27.11
2023-04-15T13:30:49.231Z,27.57
2023-04-15T13:33:20.527Z,27.51
2023-04-15T13:35:51.176Z,27.58
2023-04-15T13:38:24.633Z,27.91
2023-04-15T13:40:55.394Z,27.68
2023-04-15T13:43:26.784Z,28.36
2023-04-15T13:45:57.662Z,28.10
2023-04-15T13:48:28.843Z,28.19
2023-04-15T13:50:59.579Z,27.87
2023-04-15T13:53:38.493Z,28.17
2023-04-15T13:56:11.028Z,28.49
2023-04-15T13:58:42.209Z,28.79
2023-04-15T14:01:13.185Z,28.84
2023-04-15T14:03:44.140Z,29.04
2023-04-15T14:06:14.853Z,29.16
2023-04-15T14:08:48.417Z,29.29
2023-04-15T14:11:19.104Z,29.89
2023-04-15T14:13:50.033Z,29.81
2023-04-15T14:16:20.805Z,29.73
2023-04-15T14:18:51.704Z,30.13
2023-04-15T14:21:22.461Z,30.41
2023-04-15T14:23:55.933Z,30.18
2023-04-15T14:26:26.740Z,30.52
2023-04-15T14:28:57.708Z,30.40
2023-04-15T14:31:28.571Z,30.69
2023-04-15T14:33:59.489Z,30.76
2023-04-15T14:36:30.555Z,31.24
2023-04-15T14:39:04.509Z,31.43
2023-04-15T14:41:35.529Z,31.24
2023-04-15T14:44:06.323Z,31.39
2023-04-15T14:46:37.028Z,31.38
2023-04-15T14:49:08.826Z,31.45
2023-04-15T14:51:41.672Z,31.92
2023-04-15T14:54:15.379Z,32.36
2023-04-15T14:56:46.105Z,32.26
2023-04-15T14:59:16.788Z,32.56
2023-04-15T15:01:47.593Z,32.85
2023-04-15T15:04:18.703Z,32.71
2023-04-15T15:06:50.556Z,32.88
2023-04-15T15:09:24.189Z,32.82
2023-04-15T15:11:54.914Z,33.20
2023-04-15T15:14:25.658Z,33.14
2023-04-15T15:16:56.382Z,32.96
2023-04-15T15:19:27.299Z,33.17
2023-04-15T15:21:58.090Z,33.06
2023-04-15T15:24:31.691Z,33.47
2023-04-15T15:27:02.606Z,33.47
2023-04-15T15:29:33.474Z,33.79
2023-04-15T15:32:04.136Z,33.57
2023-04-15T15:34:34.847Z,33.86
2023-04-15T15:37:05.584Z,34.33
2023-04-15T15:39:39.211Z,34.43
2023-04-15T15:42:10.018Z,34.82
2023-04-15T15:44:41.092Z,35.03
2023-04-15T15:47:11.952Z,35.12
2023-04-15T15:49:43.377Z,35.21
2023-04-15T15:52:16.574Z,35.53
2023-04-15T15:54:50.190Z,35.68
2023-04-15T15:57:21.227Z,36.33
2023-04-15T16:00:04.941Z,36.12
2023-04-15T16:05:17.022Z,36.90
2023-04-15T16:07:47.739Z,37.56
2023-04-15T16:10:21.298Z,37.98
2023-04-15T16:12:51.983Z,38.00
2023-04-15T16:15:23.041Z,39.48
2023-04-15T16:17:54.057Z,40.54
2023-04-15T16:20:25.112Z,42.39
2023-04-15T16:22:55.851Z,43.07
2023-04-15T16:25:29.357Z,43.50
2023-04-15T16:28:08.569Z,44.38
2023-04-15T16:30:45.248Z,47.77
2023-04-15T16:33:15.977Z,47.03
2023-04-15T16:35:46.828Z,47.87
2023-04-15T16:38:17.532Z,48.83
2023-04-15T16:40:51.824Z,50.66
2023-04-15T16:43:22.657Z,50.47
2023-04-15T16:45:53.475Z,51.19
2023-04-15T16:48:24.696Z,52.48
2023-04-15T16:50:55.778Z,53.18
2023-04-15T16:53:26.682Z,53.11
2023-04-15T16:56:00.096Z,53.30
2023-04-15T16:58:30.918Z,53.78
2023-04-15T17:01:02.219Z,54.43
2023-04-15T17:03:34.468Z,54.60
2023-04-15T17:06:05.460Z,55.10
2023-04-15T17:08:36.246Z,55.04
2023-04-15T17:11:09.830Z,56.91
2023-04-15T17:13:40.869Z,56.15
2023-04-15T17:16:12.812Z,56.82
2023-04-15T17:18:47.814Z,56.49
2023-04-15T17:21:29.627Z,56.93
2023-04-15T17:24:05.376Z,57.12
2023-04-15T17:26:47.531Z,57.67
2023-04-15T17:29:20.917Z,58.20
2023-04-15T17:31:56.199Z,58.75
2023-04-15T17:34:50.546Z,59.28
2023-04-15T17:37:41.779Z,59.07
2023-04-15T17:40:32.528Z,59.23
2023-04-15T17:43:25.677Z,59.91
2023-04-15T17:46:16.688Z,60.03
2023-04-15T17:49:07.425Z,59.95
2023-04-15T17:51:58.110Z,62.47
2023-04-15T17:54:50.026Z,60.20
2023-04-15T17:57:41.194Z,62.00
2023-04-15T18:00:34.415Z,69.41
2023-04-15T18:03:25.135Z,73.98
2023-04-15T18:06:17.236Z,77.33
2023-04-15T18:09:09.021Z,78.81
2023-04-15T18:11:59.633Z,80.65
2023-04-15T18:14:50.414Z,82.11
2023-04-15T18:17:43.565Z,84.25
2023-04-15T18:20:19.507Z,86.38
2023-04-15T18:22:52.239Z,90.28
2023-04-15T18:25:23.664Z,87.59
2023-04-15T18:27:54.525Z,85.52
2023-04-15T18:30:25.445Z,83.90
2023-04-15T18:32:59.000Z,82.45
2023-04-15T18:35:30.237Z,80.92
2023-04-15T18:38:01.627Z,79.96
2023-04-15T18:40:35.483Z,78.55
2023-04-15T18:43:06.997Z,77.55
2023-04-15T18:45:38.130Z,76.30
2023-04-15T18:48:11.889Z,75.39
2023-04-15T18:50:42.835Z,74.31
2023-04-15T18:53:13.734Z,73.63
2023-04-15T18:55:44.502Z,72.64
2023-04-15T18:58:15.999Z,69.33
2023-04-15T19:00:46.826Z,69.87
2023-04-15T19:03:20.553Z,74.85
2023-04-15T19:05:51.276Z,78.67
2023-04-15T19:08:22.221Z,80.97
2023-04-15T19:10:53.058Z,82.60
2023-04-15T19:13:24.571Z,85.20
2023-04-15T19:15:55.631Z,87.25
2023-04-15T19:18:29.760Z,88.06
2023-04-15T19:21:00.677Z,88.04
2023-04-15T19:23:32.023Z,88.79
2023-04-15T19:26:02.828Z,89.34
2023-04-15T19:28:33.680Z,89.58
2023-04-15T19:31:04.712Z,89.55
2023-04-15T19:33:38.418Z,90.19
2023-04-15T19:36:10.743Z,90.29
2023-04-15T19:38:41.777Z,90.88
2023-04-15T19:41:13.507Z,90.39
2023-04-15T19:43:44.471Z,90.96
2023-04-15T19:46:15.770Z,90.81
2023-04-15T19:48:49.424Z,91.27
2023-04-15T19:51:21.803Z,95.69
2023-04-15T19:53:54.459Z,93.99
2023-04-15T19:56:26.988Z,92.55
2023-04-15T19:59:00.165Z,91.13
2023-04-15T20:01:31.290Z,89.73
2023-04-15T20:04:05.079Z,88.53
2023-04-15T20:06:36.219Z,87.29
2023-04-15T20:09:08.997Z,86.08
2023-04-15T20:12:45.969Z,84.69
2023-04-15T20:14:32.794Z,83.55
2023-04-15T20:17:03.600Z,82.83
2023-04-15T20:19:36.966Z,82.22
2023-04-15T20:22:07.803Z,81.77
2023-04-15T20:24:38.589Z,81.23
2023-04-15T20:27:09.398Z,80.62
2023-04-15T20:29:40.370Z,80.04
2023-04-15T20:32:11.902Z,79.22
2023-04-15T20:34:45.235Z,78.81
2023-04-15T20:37:16.492Z,78.36
2023-04-15T20:39:47.787Z,77.94
2023-04-15T20:42:18.547Z,77.78
2023-04-15T20:44:49.538Z,77.48
2023-04-15T20:47:20.427Z,77.07
2023-04-15T20:49:54.321Z,76.95
2023-04-15T20:52:25.179Z,76.65
2023-04-15T20:54:56.263Z,76.59
2023-04-15T20:57:29.075Z,76.29
2023-04-15T21:00:00.019Z,76.11
2023-04-15T21:02:31.068Z,76.12
2023-04-15T21:05:05.063Z,76.01
2023-04-15T21:07:36.413Z,76.07
2023-04-15T21:10:07.589Z,75.75
2023-04-15T21:12:41.653Z,75.84
2023-04-15T21:15:13.485Z,75.71
2023-04-15T21:17:44.451Z,75.68
2023-04-15T21:20:18.492Z,75.72
2023-04-15T21:22:49.416Z,75.31
2023-04-15T21:25:20.551Z,75.46
2023-04-15T21:27:51.509Z,75.83
2023-04-15T21:30:24.132Z,75.45
2023-04-15T21:32:56.073Z,75.33
2023-04-15T21:35:30.792Z,75.40
2023-04-15T21:38:01.756Z,75.15
2023-04-15T21:40:32.960Z,75.26
2023-04-15T21:43:03.689Z,74.98
2023-04-15T21:45:34.533Z,74.64
2023-04-15T21:48:07.608Z,74.43
2023-04-15T21:50:42.457Z,74.07
2023-04-15T21:53:13.225Z,73.80
2023-04-15T21:55:43.977Z,74.05
2023-04-15T21:58:14.656Z,73.98
2023-04-15T22:00:45.269Z,73.92
2023-04-15T22:03:16.351Z,73.58
2023-04-15T22:05:50.297Z,73.34
2023-04-15T22:08:21.132Z,73.30
2023-04-15T22:10:51.994Z,73.01
2023-04-15T22:13:22.635Z,72.81
2023-04-15T22:15:53.514Z,72.63
2023-04-15T22:18:24.451Z,72.87
2023-04-15T22:20:57.972Z,72.40
2023-04-15T22:23:28.709Z,72.72
2023-04-15T22:25:59.479Z,72.69
2023-04-15T22:28:30.367Z,77.47
2023-04-15T22:31:01.377Z,75.69
2023-04-15T22:33:32.089Z,74.95
2023-04-15T22:36:05.801Z,74.63
2023-04-15T22:38:36.772Z,76.09
2023-04-15T22:41:07.569Z,76.57
2023-04-15T22:43:38.319Z,75.61
2023-04-15T22:46:09.273Z,76.76
2023-04-15T22:48:40.431Z,76.35
2023-04-15T22:51:13.815Z,76.34
2023-04-15T22:53:45.024Z,77.20
2023-04-15T22:56:17.578Z,77.11
2023-04-15T22:58:48.541Z,75.60
2023-04-15T23:01:21.115Z,76.14
2023-04-15T23:03:56.983Z,75.60
2023-04-15T23:06:40.416Z,75.53
2023-04-15T23:09:11.633Z,76.25
2023-04-15T23:11:42.686Z,76.41
2023-04-15T23:14:13.975Z,76.27
2023-04-15T23:16:45.855Z,76.53
2023-04-15T23:19:17.219Z,76.58
2023-04-15T23:21:50.878Z,76.62
2023-04-15T23:24:21.732Z,76.56
2023-04-15T23:26:53.386Z,76.31
2023-04-15T23:29:24.249Z,75.77
2023-04-15T23:31:55.118Z,75.77
2023-04-15T23:34:26.021Z,76.18
2023-04-15T23:36:59.605Z,76.24
2023-04-15T23:39:30.526Z,75.24
2023-04-15T23:42:01.641Z,75.11
2023-04-15T23:44:32.593Z,73.68
2023-04-15T23:47:03.521Z,74.10
2023-04-15T23:49:34.397Z,73.32
2023-04-15T23:52:08.047Z,73.50
2023-04-15T23:54:38.795Z,72.38
2023-04-15T23:57:09.705Z,72.50
2023-04-15T23:59:40.878Z,71.65
